sensor_id;sensor_type;location;lat;lon;timestamp;pressure;altitude;pressure_sealevel;temperature;humidity
51715;BME280;39115;59.332;18.034;2024-03-08T00:01:56;102455.75;;;2.58;66.70
51715;BME280;39115;59.332;18.034;2024-03-08T00:04:16;102452.31;;;2.56;66.81
51715;BME280;39115;59.332;18.034;2024-03-08T00:06:37;102452.41;;;2.53;66.64
51715;BME280;39115;59.332;18.034;2024-03-08T00:08:57;102454.19;;;2.52;66.65
51715;BME280;39115;59.332;18.034;2024-03-08T00:11:18;102453.34;;;2.50;66.72
51715;BME280;39115;59.332;18.034;2024-03-08T00:13:39;102456.88;;;2.49;66.72
51715;BME280;39115;59.332;18.034;2024-03-08T00:15:59;102456.88;;;2.49;66.70
51715;BME280;39115;59.332;18.034;2024-03-08T00:18:20;102456.03;;;2.47;66.81
51715;BME280;39115;59.332;18.034;2024-03-08T00:20:41;102456.09;;;2.46;66.87
51715;BME280;39115;59.332;18.034;2024-03-08T00:23:01;102450.06;;;2.42;66.71
51715;BME280;39115;59.332;18.034;2024-03-08T00:25:22;102443.91;;;2.42;66.54
51715;BME280;39115;59.332;18.034;2024-03-08T00:27:43;102446.59;;;2.40;66.73
51715;BME280;39115;59.332;18.034;2024-03-08T00:30:04;102449.22;;;2.40;66.48
51715;BME280;39115;59.332;18.034;2024-03-08T00:32:28;102452.81;;;2.37;66.59
51715;BME280;39115;59.332;18.034;2024-03-08T00:34:49;102439.72;;;2.36;66.54
51715;BME280;39115;59.332;18.034;2024-03-08T00:37:12;102444.13;;;2.34;66.52
51715;BME280;39115;59.332;18.034;2024-03-08T00:39:32;102438.00;;;2.33;66.55
51715;BME280;39115;59.332;18.034;2024-03-08T00:41:53;102437.19;;;2.31;66.69
51715;BME280;39115;59.332;18.034;2024-03-08T00:44:14;102437.22;;;2.30;66.49
51715;BME280;39115;59.332;18.034;2024-03-08T00:46:34;102435.53;;;2.29;66.67
51715;BME280;39115;59.332;18.034;2024-03-08T00:48:55;102435.53;;;2.27;66.56
51715;BME280;39115;59.332;18.034;2024-03-08T00:51:17;102425.06;;;2.26;66.86
51715;BME280;39115;59.332;18.034;2024-03-08T00:53:37;102439.09;;;2.25;66.76
51715;BME280;39115;59.332;18.034;2024-03-08T00:55:58;102433.91;;;2.23;66.56
51715;BME280;39115;59.332;18.034;2024-03-08T00:58:18;102431.31;;;2.21;66.62
51715;BME280;39115;59.332;18.034;2024-03-08T01:00:39;102433.97;;;2.20;66.68
51715;BME280;39115;59.332;18.034;2024-03-08T01:03:00;102433.13;;;2.19;66.61
51715;BME280;39115;59.332;18.034;2024-03-08T01:05:21;102426.13;;;2.18;66.54
51715;BME280;39115;59.332;18.034;2024-03-08T01:07:42;102423.56;;;2.15;66.58
51715;BME280;39115;59.332;18.034;2024-03-08T01:10:03;102431.44;;;2.15;66.54
51715;BME280;39115;59.332;18.034;2024-03-08T01:12:24;102422.78;;;2.13;66.50
51715;BME280;39115;59.332;18.034;2024-03-08T01:14:45;102425.41;;;2.12;66.72
51715;BME280;39115;59.332;18.034;2024-03-08T01:17:05;102428.94;;;2.11;66.55
51715;BME280;39115;59.332;18.034;2024-03-08T01:19:26;102431.63;;;2.09;66.71
51715;BME280;39115;59.332;18.034;2024-03-08T01:21:47;102426.41;;;2.08;66.61
51715;BME280;39115;59.332;18.034;2024-03-08T01:24:07;102428.16;;;2.07;66.67
51715;BME280;39115;59.332;18.034;2024-03-08T01:26:28;102424.72;;;2.05;66.66
51715;BME280;39115;59.332;18.034;2024-03-08T01:28:49;102428.25;;;2.04;66.60
51715;BME280;39115;59.332;18.034;2024-03-08T01:31:10;102430.91;;;2.02;66.60
51715;BME280;39115;59.332;18.034;2024-03-08T01:33:31;102413.44;;;2.01;66.34
51715;BME280;39115;59.332;18.034;2024-03-08T01:35:54;102416.97;;;2.00;66.55
51715;BME280;39115;59.332;18.034;2024-03-08T01:38:15;102417.84;;;1.99;66.66
51715;BME280;39115;59.332;18.034;2024-03-08T01:40:36;102389.41;;;1.81;66.54
51715;BME280;39115;59.332;18.034;2024-03-08T01:42:56;102413.56;;;1.95;66.25
51715;BME280;39115;59.332;18.034;2024-03-08T01:45:17;102414.50;;;1.94;66.67
51715;BME280;39115;59.332;18.034;2024-03-08T01:47:38;102418.88;;;1.94;66.67
51715;BME280;39115;59.332;18.034;2024-03-08T01:49:59;102418.91;;;1.92;66.78
51715;BME280;39115;59.332;18.034;2024-03-08T01:52:21;102416.31;;;1.90;66.71
51715;BME280;39115;59.332;18.034;2024-03-08T01:54:44;102416.34;;;1.89;66.54
51715;BME280;39115;59.332;18.034;2024-03-08T01:57:05;102412.00;;;1.88;66.58
51715;BME280;39115;59.332;18.034;2024-03-08T01:59:28;102407.69;;;1.85;66.70
51715;BME280;39115;59.332;18.034;2024-03-08T02:01:49;102415.56;;;1.85;66.52
51715;BME280;39115;59.332;18.034;2024-03-08T02:04:11;102403.38;;;1.83;66.61
51715;BME280;39115;59.332;18.034;2024-03-08T02:06:32;102402.53;;;1.81;66.44
51715;BME280;39115;59.332;18.034;2024-03-08T02:08:53;102398.19;;;1.80;66.50
51715;BME280;39115;59.332;18.034;2024-03-08T02:11:14;102402.59;;;1.79;66.58
51715;BME280;39115;59.332;18.034;2024-03-08T02:13:34;102403.47;;;1.78;66.64
51715;BME280;39115;59.332;18.034;2024-03-08T02:15:59;102393.03;;;1.77;66.44
51715;BME280;39115;59.332;18.034;2024-03-08T02:18:21;102393.03;;;1.75;66.39
51715;BME280;39115;59.332;18.034;2024-03-08T02:20:42;102393.09;;;1.73;66.60
51715;BME280;39115;59.332;18.034;2024-03-08T02:23:03;102397.50;;;1.71;66.64
51715;BME280;39115;59.332;18.034;2024-03-08T02:25:24;102390.56;;;1.70;66.62
51715;BME280;39115;59.332;18.034;2024-03-08T02:27:44;102386.19;;;1.69;66.83
51715;BME280;39115;59.332;18.034;2024-03-08T02:30:05;102387.09;;;1.68;66.51
51715;BME280;39115;59.332;18.034;2024-03-08T02:32:26;102388.84;;;1.68;66.79
51715;BME280;39115;59.332;18.034;2024-03-08T02:34:46;102388.94;;;1.65;66.44
51715;BME280;39115;59.332;18.034;2024-03-08T02:37:07;102390.69;;;1.64;66.66
51715;BME280;39115;59.332;18.034;2024-03-08T02:39:29;102386.34;;;1.63;66.73
51715;BME280;39115;59.332;18.034;2024-03-08T02:41:49;102382.00;;;1.61;66.65
51715;BME280;39115;59.332;18.034;2024-03-08T02:44:10;102379.44;;;1.59;66.56
51715;BME280;39115;59.332;18.034;2024-03-08T02:46:32;102379.47;;;1.57;66.51
51715;BME280;39115;59.332;18.034;2024-03-08T02:48:52;102379.47;;;1.57;66.63
51715;BME280;39115;59.332;18.034;2024-03-08T02:51:13;102383.91;;;1.55;66.54
51715;BME280;39115;59.332;18.034;2024-03-08T02:53:34;102378.69;;;1.54;66.68
51715;BME280;39115;59.332;18.034;2024-03-08T02:55:55;102382.22;;;1.53;66.50
51715;BME280;39115;59.332;18.034;2024-03-08T02:58:15;102378.69;;;1.52;66.47
51715;BME280;39115;59.332;18.034;2024-03-08T03:00:37;102381.41;;;1.49;66.34
51715;BME280;39115;59.332;18.034;2024-03-08T03:02:59;102382.31;;;1.48;66.88
51715;BME280;39115;59.332;18.034;2024-03-08T03:05:20;102380.59;;;1.47;66.70
51715;BME280;39115;59.332;18.034;2024-03-08T03:07:40;102380.63;;;1.46;66.73
51715;BME280;39115;59.332;18.034;2024-03-08T03:10:01;102381.47;;;1.46;66.53
51715;BME280;39115;59.332;18.034;2024-03-08T03:12:22;102384.19;;;1.43;66.71
51715;BME280;39115;59.332;18.034;2024-03-08T03:14:43;102378.94;;;1.43;66.42
51715;BME280;39115;59.332;18.034;2024-03-08T03:17:04;102380.72;;;1.41;66.42
51715;BME280;39115;59.332;18.034;2024-03-08T03:19:24;102383.41;;;1.39;66.59
51715;BME280;39115;59.332;18.034;2024-03-08T03:21:45;102391.28;;;1.38;66.57
51715;BME280;39115;59.332;18.034;2024-03-08T03:24:06;102387.81;;;1.37;66.47
51715;BME280;39115;59.332;18.034;2024-03-08T03:26:30;102386.09;;;1.36;66.92
51715;BME280;39115;59.332;18.034;2024-03-08T03:28:51;102381.78;;;1.34;66.43
51715;BME280;39115;59.332;18.034;2024-03-08T03:31:11;102392.28;;;1.34;66.77
51715;BME280;39115;59.332;18.034;2024-03-08T03:33:34;102388.81;;;1.32;66.67
51715;BME280;39115;59.332;18.034;2024-03-08T03:35:54;102388.84;;;1.30;66.73
51715;BME280;39115;59.332;18.034;2024-03-08T03:38:15;102381.88;;;1.29;66.72
51715;BME280;39115;59.332;18.034;2024-03-08T03:40:39;102379.28;;;1.28;66.60
51715;BME280;39115;59.332;18.034;2024-03-08T03:43:02;102376.66;;;1.28;66.65
51715;BME280;39115;59.332;18.034;2024-03-08T03:45:25;102379.34;;;1.24;66.73
51715;BME280;39115;59.332;18.034;2024-03-08T03:47:46;102381.13;;;1.24;66.64
51715;BME280;39115;59.332;18.034;2024-03-08T03:50:07;102378.50;;;1.22;66.28
51715;BME280;39115;59.332;18.034;2024-03-08T03:52:29;102372.47;;;1.20;66.43
51715;BME280;39115;59.332;18.034;2024-03-08T03:54:50;102370.72;;;1.19;66.35
51715;BME280;39115;59.332;18.034;2024-03-08T03:57:10;102366.38;;;1.18;66.29
51715;BME280;39115;59.332;18.034;2024-03-08T03:59:32;102375.13;;;1.17;66.40
51715;BME280;39115;59.332;18.034;2024-03-08T04:01:53;102373.41;;;1.16;66.46
51715;BME280;39115;59.332;18.034;2024-03-08T04:04:15;102375.19;;;1.16;66.50
51715;BME280;39115;59.332;18.034;2024-03-08T04:06:35;102373.44;;;1.15;66.51
51715;BME280;39115;59.332;18.034;2024-03-08T04:08:56;102376.09;;;1.13;66.81
51715;BME280;39115;59.332;18.034;2024-03-08T04:11:16;102369.16;;;1.10;66.77
51715;BME280;39115;59.332;18.034;2024-03-08T04:13:37;102370.97;;;1.07;66.44
51715;BME280;39115;59.332;18.034;2024-03-08T04:15:58;102371.81;;;1.09;66.75
51715;BME280;39115;59.332;18.034;2024-03-08T04:18:18;102375.34;;;1.08;66.67
51715;BME280;39115;59.332;18.034;2024-03-08T04:20:39;102370.13;;;1.06;66.48
51715;BME280;39115;59.332;18.034;2024-03-08T04:23:00;102368.44;;;1.04;66.47
51715;BME280;39115;59.332;18.034;2024-03-08T04:25:21;102367.56;;;1.03;66.47
51715;BME280;39115;59.332;18.034;2024-03-08T04:27:42;102368.47;;;1.02;66.60
51715;BME280;39115;59.332;18.034;2024-03-08T04:30:03;102367.59;;;1.02;66.32
51715;BME280;39115;59.332;18.034;2024-03-08T04:32:24;102358.91;;;1.00;66.55
51715;BME280;39115;59.332;18.034;2024-03-08T04:34:44;102361.56;;;0.98;66.72
51715;BME280;39115;59.332;18.034;2024-03-08T04:37:05;102365.94;;;0.98;66.53
51715;BME280;39115;59.332;18.034;2024-03-08T04:39:25;102354.63;;;0.96;66.36
51715;BME280;39115;59.332;18.034;2024-03-08T04:41:49;102353.75;;;0.95;66.60
51715;BME280;39115;59.332;18.034;2024-03-08T04:44:10;102354.63;;;0.94;66.75
51715;BME280;39115;59.332;18.034;2024-03-08T04:46:32;102351.22;;;0.92;66.56
51715;BME280;39115;59.332;18.034;2024-03-08T04:48:53;102353.84;;;0.92;66.65
51715;BME280;39115;59.332;18.034;2024-03-08T04:51:13;102351.22;;;0.90;66.54
51715;BME280;39115;59.332;18.034;2024-03-08T04:53:34;102346.03;;;0.89;66.28
51715;BME280;39115;59.332;18.034;2024-03-08T04:55:54;102354.78;;;0.88;66.26
51715;BME280;39115;59.332;18.034;2024-03-08T04:58:18;102357.44;;;0.86;66.37
51715;BME280;39115;59.332;18.034;2024-03-08T05:00:38;102348.69;;;0.86;66.39
51715;BME280;39115;59.332;18.034;2024-03-08T05:02:59;102343.53;;;0.83;66.20
51715;BME280;39115;59.332;18.034;2024-03-08T05:05:19;102347.91;;;0.82;66.48
51715;BME280;39115;59.332;18.034;2024-03-08T05:07:40;102348.81;;;0.81;66.54
51715;BME280;39115;59.332;18.034;2024-03-08T05:10:00;102342.75;;;0.79;66.50
51715;BME280;39115;59.332;18.034;2024-03-08T05:12:22;102341.00;;;0.78;66.59
51715;BME280;39115;59.332;18.034;2024-03-08T05:14:43;102340.16;;;0.77;66.88
51715;BME280;39115;59.332;18.034;2024-03-08T05:17:03;102340.16;;;0.76;66.73
51715;BME280;39115;59.332;18.034;2024-03-08T05:19:27;102342.78;;;0.76;66.59
51715;BME280;39115;59.332;18.034;2024-03-08T05:21:49;102335.88;;;0.73;66.65
51715;BME280;39115;59.332;18.034;2024-03-08T05:24:09;102345.50;;;0.73;66.66
51715;BME280;39115;59.332;18.034;2024-03-08T05:26:36;102345.50;;;0.71;66.45
51715;BME280;39115;59.332;18.034;2024-03-08T05:28:59;102343.78;;;0.70;66.60
51715;BME280;39115;59.332;18.034;2024-03-08T05:31:20;102344.72;;;0.68;66.56
51715;BME280;39115;59.332;18.034;2024-03-08T05:33:44;102348.22;;;0.68;66.76
51715;BME280;39115;59.332;18.034;2024-03-08T05:36:04;102343.84;;;0.67;66.13
51715;BME280;39115;59.332;18.034;2024-03-08T05:38:26;102343.91;;;0.64;66.37
51715;BME280;39115;59.332;18.034;2024-03-08T05:40:46;102342.16;;;0.65;66.30
51715;BME280;39115;59.332;18.034;2024-03-08T05:43:07;102347.41;;;0.63;66.45
51715;BME280;39115;59.332;18.034;2024-03-08T05:45:27;102344.84;;;0.61;66.84
51715;BME280;39115;59.332;18.034;2024-03-08T05:47:47;102340.50;;;0.60;66.46
51715;BME280;39115;59.332;18.034;2024-03-08T05:50:09;102357.09;;;0.59;66.53
51715;BME280;39115;59.332;18.034;2024-03-08T05:52:31;102346.66;;;0.58;66.17
51715;BME280;39115;59.332;18.034;2024-03-08T05:54:52;102352.75;;;0.58;66.42
51715;BME280;39115;59.332;18.034;2024-03-08T05:57:12;102344.09;;;0.56;66.60
51715;BME280;39115;59.332;18.034;2024-03-08T05:59:34;102340.63;;;0.54;66.64
51715;BME280;39115;59.332;18.034;2024-03-08T06:01:54;102339.78;;;0.54;66.68
51715;BME280;39115;59.332;18.034;2024-03-08T06:04:16;102351.16;;;0.53;66.51
51715;BME280;39115;59.332;18.034;2024-03-08T06:06:38;102342.41;;;0.52;66.38
51715;BME280;39115;59.332;18.034;2024-03-08T06:08:58;102344.16;;;0.52;66.70
51715;BME280;39115;59.332;18.034;2024-03-08T06:11:20;102338.09;;;0.50;66.51
51715;BME280;39115;59.332;18.034;2024-03-08T06:13:40;102344.22;;;0.49;66.52
51715;BME280;39115;59.332;18.034;2024-03-08T06:16:01;102347.72;;;0.47;66.48
51715;BME280;39115;59.332;18.034;2024-03-08T06:18:25;102348.66;;;0.46;66.30
51715;BME280;39115;59.332;18.034;2024-03-08T06:20:46;102347.78;;;0.46;66.56
51715;BME280;39115;59.332;18.034;2024-03-08T06:23:07;102355.63;;;0.46;66.38
51715;BME280;39115;59.332;18.034;2024-03-08T06:25:27;102348.69;;;0.43;66.37
51715;BME280;39115;59.332;18.034;2024-03-08T06:27:48;102351.34;;;0.42;66.60
51715;BME280;39115;59.332;18.034;2024-03-08T06:30:09;102351.34;;;0.42;66.56
51715;BME280;39115;59.332;18.034;2024-03-08T06:32:30;102351.34;;;0.42;66.59
51715;BME280;39115;59.332;18.034;2024-03-08T06:34:55;102351.38;;;0.40;66.31
51715;BME280;39115;59.332;18.034;2024-03-08T06:37:15;102347.00;;;0.39;66.45
51715;BME280;39115;59.332;18.034;2024-03-08T06:39:36;102356.66;;;0.39;66.30
51715;BME280;39115;59.332;18.034;2024-03-08T06:41:56;102355.78;;;0.38;66.67
51715;BME280;39115;59.332;18.034;2024-03-08T06:44:16;102351.44;;;0.37;66.63
51715;BME280;39115;59.332;18.034;2024-03-08T06:46:37;102354.06;;;0.37;66.34
51715;BME280;39115;59.332;18.034;2024-03-08T06:48:58;102353.25;;;0.34;66.30
51715;BME280;39115;59.332;18.034;2024-03-08T06:51:19;102361.94;;;0.36;66.64
51715;BME280;39115;59.332;18.034;2024-03-08T06:53:39;102352.38;;;0.35;66.66
51715;BME280;39115;59.332;18.034;2024-03-08T06:56:03;102356.72;;;0.34;66.30
51715;BME280;39115;59.332;18.034;2024-03-08T06:58:24;102352.47;;;0.30;66.11
51715;BME280;39115;59.332;18.034;2024-03-08T07:00:44;102362.84;;;0.33;66.00
51715;BME280;39115;59.332;18.034;2024-03-08T07:03:08;102365.47;;;0.33;66.34
51715;BME280;39115;59.332;18.034;2024-03-08T07:05:32;102365.47;;;0.33;66.45
51715;BME280;39115;59.332;18.034;2024-03-08T07:07:53;102356.75;;;0.33;66.14
51715;BME280;39115;59.332;18.034;2024-03-08T07:10:14;102359.38;;;0.33;66.29
51715;BME280;39115;59.332;18.034;2024-03-08T07:12:35;102361.13;;;0.32;66.54
51715;BME280;39115;59.332;18.034;2024-03-08T07:14:56;102362.00;;;0.33;66.53
51715;BME280;39115;59.332;18.034;2024-03-08T07:17:17;102364.63;;;0.33;66.67
51715;BME280;39115;59.332;18.034;2024-03-08T07:19:37;102359.38;;;0.33;66.28
51715;BME280;39115;59.332;18.034;2024-03-08T07:22:01;102358.50;;;0.34;66.30
51715;BME280;39115;59.332;18.034;2024-03-08T07:24:23;102361.94;;;0.36;66.47
51715;BME280;39115;59.332;18.034;2024-03-08T07:26:58;102354.94;;;0.36;66.41
51715;BME280;39115;59.332;18.034;2024-03-08T07:29:19;102360.16;;;0.38;66.48
51715;BME280;39115;59.332;18.034;2024-03-08T07:31:40;102357.53;;;0.38;66.62
51715;BME280;39115;59.332;18.034;2024-03-08T07:34:36;102351.41;;;0.39;66.14
51715;BME280;39115;59.332;18.034;2024-03-08T07:36:58;102359.22;;;0.42;66.54
51715;BME280;39115;59.332;18.034;2024-03-08T07:39:19;102354.81;;;0.42;66.54
51715;BME280;39115;59.332;18.034;2024-03-08T07:41:39;102352.16;;;0.45;66.49
51715;BME280;39115;59.332;18.034;2024-03-08T07:44:00;102353.84;;;0.48;66.00
51715;BME280;39115;59.332;18.034;2024-03-08T07:46:23;102344.22;;;0.49;66.03
51715;BME280;39115;59.332;18.034;2024-03-08T07:48:44;102347.59;;;0.55;66.43
51715;BME280;39115;59.332;18.034;2024-03-08T07:51:05;102350.13;;;0.60;65.93
51715;BME280;39115;59.332;18.034;2024-03-08T07:53:25;102348.31;;;0.63;66.24
51715;BME280;39115;59.332;18.034;2024-03-08T07:55:46;102349.94;;;0.69;65.93
51715;BME280;39115;59.332;18.034;2024-03-08T07:58:07;102348.94;;;0.75;66.21
51715;BME280;39115;59.332;18.034;2024-03-08T08:00:29;102349.69;;;0.82;66.13
51715;BME280;39115;59.332;18.034;2024-03-08T08:02:51;102338.19;;;0.87;66.03
51715;BME280;39115;59.332;18.034;2024-03-08T08:05:12;102340.69;;;0.93;66.04
51715;BME280;39115;59.332;18.034;2024-03-08T08:07:33;102336.19;;;1.00;66.13
51715;BME280;39115;59.332;18.034;2024-03-08T08:09:54;102347.38;;;1.08;65.73
51715;BME280;39115;59.332;18.034;2024-03-08T08:12:14;102341.09;;;1.16;66.11
51715;BME280;39115;59.332;18.034;2024-03-08T08:14:35;102340.88;;;1.23;66.08
51715;BME280;39115;59.332;18.034;2024-03-08T08:16:55;102340.69;;;1.33;65.77
51715;BME280;39115;59.332;18.034;2024-03-08T08:19:17;102332.63;;;1.40;65.61
51715;BME280;39115;59.332;18.034;2024-03-08T08:21:37;102334.22;;;1.48;65.71
51715;BME280;39115;59.332;18.034;2024-03-08T08:23:58;102343.56;;;1.58;65.65
51715;BME280;39115;59.332;18.034;2024-03-08T08:26:19;102340.78;;;1.66;65.66
51715;BME280;39115;59.332;18.034;2024-03-08T08:28:39;102334.47;;;1.73;65.67
51715;BME280;39115;59.332;18.034;2024-03-08T08:31:01;102327.28;;;1.80;65.66
51715;BME280;39115;59.332;18.034;2024-03-08T08:33:21;102326.16;;;1.90;65.36
51715;BME280;39115;59.332;18.034;2024-03-08T08:35:42;102332.91;;;1.99;65.43
51715;BME280;39115;59.332;18.034;2024-03-08T08:38:06;102328.38;;;2.05;65.53
51715;BME280;39115;59.332;18.034;2024-03-08T08:40:27;102331.72;;;2.12;65.47
51715;BME280;39115;59.332;18.034;2024-03-08T08:42:48;102331.50;;;2.20;65.16
51715;BME280;39115;59.332;18.034;2024-03-08T08:45:09;102329.63;;;2.25;64.98
51715;BME280;39115;59.332;18.034;2024-03-08T08:47:29;102327.63;;;2.33;65.27
51715;BME280;39115;59.332;18.034;2024-03-08T08:49:50;102332.72;;;2.40;65.00
51715;BME280;39115;59.332;18.034;2024-03-08T08:52:11;102322.94;;;2.45;64.99
51715;BME280;39115;59.332;18.034;2024-03-08T08:54:31;102331.53;;;2.51;65.04
51715;BME280;39115;59.332;18.034;2024-03-08T08:56:52;102328.69;;;2.58;65.13
51715;BME280;39115;59.332;18.034;2024-03-08T08:59:13;102330.31;;;2.63;64.78
51715;BME280;39115;59.332;18.034;2024-03-08T09:01:34;102324.94;;;2.66;64.75
51715;BME280;39115;59.332;18.034;2024-03-08T09:03:55;102325.56;;;2.75;64.93
51715;BME280;39115;59.332;18.034;2024-03-08T09:06:15;102312.28;;;2.79;64.72
51715;BME280;39115;59.332;18.034;2024-03-08T09:08:37;102320.03;;;2.84;64.71
51715;BME280;39115;59.332;18.034;2024-03-08T09:10:58;102318.13;;;2.89;64.60
51715;BME280;39115;59.332;18.034;2024-03-08T09:13:19;102319.78;;;2.93;64.75
51715;BME280;39115;59.332;18.034;2024-03-08T09:15:40;102318.72;;;2.99;64.80
51715;BME280;39115;59.332;18.034;2024-03-08T09:18:02;102309.06;;;2.99;64.47
51715;BME280;39115;59.332;18.034;2024-03-08T09:20:22;102306.16;;;3.07;64.46
51715;BME280;39115;59.332;18.034;2024-03-08T09:22:45;102306.91;;;3.12;64.72
51715;BME280;39115;59.332;18.034;2024-03-08T09:25:06;102308.53;;;3.16;64.66
51715;BME280;39115;59.332;18.034;2024-03-08T09:27:27;102303.16;;;3.20;64.25
51715;BME280;39115;59.332;18.034;2024-03-08T09:29:48;102304.75;;;3.25;64.55
51715;BME280;39115;59.332;18.034;2024-03-08T09:32:09;102311.63;;;3.29;64.43
51715;BME280;39115;59.332;18.034;2024-03-08T09:34:29;102308.03;;;3.32;64.41
51715;BME280;39115;59.332;18.034;2024-03-08T09:36:50;102298.25;;;3.36;64.44
51715;BME280;39115;59.332;18.034;2024-03-08T09:39:12;102299.03;;;3.39;64.50
51715;BME280;39115;59.332;18.034;2024-03-08T09:41:36;102304.19;;;3.42;64.19
51715;BME280;39115;59.332;18.034;2024-03-08T09:44:00;102301.41;;;3.47;64.21
51715;BME280;39115;59.332;18.034;2024-03-08T09:46:21;102298.66;;;3.50;64.38
51715;BME280;39115;59.332;18.034;2024-03-08T09:48:43;102298.56;;;3.53;64.03
51715;BME280;39115;59.332;18.034;2024-03-08T09:51:04;102294.06;;;3.57;63.95
51715;BME280;39115;59.332;18.034;2024-03-08T09:53:25;102303.59;;;3.61;64.25
51715;BME280;39115;59.332;18.034;2024-03-08T09:55:46;102300.84;;;3.64;64.20
51715;BME280;39115;59.332;18.034;2024-03-08T09:58:08;102297.25;;;3.67;64.23
51715;BME280;39115;59.332;18.034;2024-03-08T10:00:48;102300.69;;;3.69;64.20
51715;BME280;39115;59.332;18.034;2024-03-08T10:03:09;102294.44;;;3.73;64.45
51715;BME280;39115;59.332;18.034;2024-03-08T10:05:30;102292.53;;;3.76;64.48
51715;BME280;39115;59.332;18.034;2024-03-08T10:07:54;102295.13;;;3.78;64.44
51715;BME280;39115;59.332;18.034;2024-03-08T10:10:14;102291.56;;;3.79;64.04
51715;BME280;39115;59.332;18.034;2024-03-08T10:12:35;102294.91;;;3.84;64.03
51715;BME280;39115;59.332;18.034;2024-03-08T10:14:56;102293.91;;;3.88;64.14
51715;BME280;39115;59.332;18.034;2024-03-08T10:17:19;102291.19;;;3.90;63.95
51715;BME280;39115;59.332;18.034;2024-03-08T10:19:50;102280.50;;;3.94;64.51
51715;BME280;39115;59.332;18.034;2024-03-08T10:22:15;102290.97;;;3.96;63.97
51715;BME280;39115;59.332;18.034;2024-03-08T10:24:36;102290.81;;;4.01;64.21
51715;BME280;39115;59.332;18.034;2024-03-08T10:27:00;102293.38;;;4.02;64.20
51715;BME280;39115;59.332;18.034;2024-03-08T10:29:24;102288.09;;;4.04;64.24
51715;BME280;39115;59.332;18.034;2024-03-08T10:31:45;102292.38;;;4.06;64.31
51715;BME280;39115;59.332;18.034;2024-03-08T10:34:06;102288.78;;;4.09;64.40
51715;BME280;39115;59.332;18.034;2024-03-08T10:36:28;102287.78;;;4.11;64.38
51715;BME280;39115;59.332;18.034;2024-03-08T10:38:51;102286.81;;;4.14;64.11
51715;BME280;39115;59.332;18.034;2024-03-08T10:41:14;102294.63;;;4.17;63.97
51715;BME280;39115;59.332;18.034;2024-03-08T10:48:49;102292.59;;;4.25;64.43
51715;BME280;39115;59.332;18.034;2024-03-08T10:51:11;102297.78;;;4.27;64.11
51715;BME280;39115;59.332;18.034;2024-03-08T10:53:33;102300.25;;;4.32;64.16
51715;BME280;39115;59.332;18.034;2024-03-08T10:55:56;102289.66;;;4.33;63.91
51715;BME280;39115;59.332;18.034;2024-03-08T10:58:17;102296.53;;;4.37;64.53
51715;BME280;39115;59.332;18.034;2024-03-08T11:00:38;102284.13;;;4.39;64.52
51715;BME280;39115;59.332;18.034;2024-03-08T11:02:59;102288.47;;;4.42;64.51
51715;BME280;39115;59.332;18.034;2024-03-08T11:05:37;102287.41;;;4.46;64.24
51715;BME280;39115;59.332;18.034;2024-03-08T11:07:58;102285.59;;;4.48;64.41
51715;BME280;39115;59.332;18.034;2024-03-08T11:10:20;102282.81;;;4.51;64.47
51715;BME280;39115;59.332;18.034;2024-03-08T11:12:40;102284.50;;;4.54;64.96
51715;BME280;39115;59.332;18.034;2024-03-08T11:15:03;102281.75;;;4.57;65.06
51715;BME280;39115;59.332;18.034;2024-03-08T11:19:55;102280.59;;;4.64;64.51
51715;BME280;39115;59.332;18.034;2024-03-08T11:22:29;102272.50;;;4.69;64.36
51715;BME280;39115;59.332;18.034;2024-03-08T11:24:53;102275.94;;;4.71;64.96
51715;BME280;39115;59.332;18.034;2024-03-08T11:27:15;102279.31;;;4.74;65.04
51715;BME280;39115;59.332;18.034;2024-03-08T11:29:36;102267.72;;;4.79;64.62
51715;BME280;39115;59.332;18.034;2024-03-08T11:34:25;102271.91;;;4.84;65.03
51715;BME280;39115;59.332;18.034;2024-03-08T11:36:48;102272.59;;;4.89;65.41
51715;BME280;39115;59.332;18.034;2024-03-08T11:39:08;102262.78;;;4.93;64.87
51715;BME280;39115;59.332;18.034;2024-03-08T11:41:35;102268.81;;;4.97;65.58
51715;BME280;39115;59.332;18.034;2024-03-08T11:44:03;102264.25;;;5.00;65.10
51715;BME280;39115;59.332;18.034;2024-03-08T11:46:27;102264.13;;;5.03;65.63
51715;BME280;39115;59.332;18.034;2024-03-08T11:48:48;102258.72;;;5.06;65.31
51715;BME280;39115;59.332;18.034;2024-03-08T11:51:09;102258.53;;;5.11;65.46
51715;BME280;39115;59.332;18.034;2024-03-08T11:53:31;102254.00;;;5.15;65.69
51715;BME280;39115;59.332;18.034;2024-03-08T11:55:52;102258.22;;;5.19;65.69
51715;BME280;39115;59.332;18.034;2024-03-08T11:58:12;102249.31;;;5.21;65.76
51715;BME280;39115;59.332;18.034;2024-03-08T12:00:33;102243.00;;;5.26;65.57
51715;BME280;39115;59.332;18.034;2024-03-08T12:03:05;102251.56;;;5.31;65.94
51715;BME280;39115;59.332;18.034;2024-03-08T12:05:26;102255.81;;;5.35;65.67
51715;BME280;39115;59.332;18.034;2024-03-08T12:07:57;102242.47;;;5.38;65.41
51715;BME280;39115;59.332;18.034;2024-03-08T12:10:22;102246.72;;;5.42;65.67
51715;BME280;39115;59.332;18.034;2024-03-08T12:12:46;102239.53;;;5.46;65.36
51715;BME280;39115;59.332;18.034;2024-03-08T12:15:08;102247.25;;;5.50;65.34
51715;BME280;39115;59.332;18.034;2024-03-08T12:17:28;102236.53;;;5.53;66.00
51715;BME280;39115;59.332;18.034;2024-03-08T12:19:49;102238.97;;;5.58;65.41
51715;BME280;39115;59.332;18.034;2024-03-08T12:22:10;102249.44;;;5.61;65.65
51715;BME280;39115;59.332;18.034;2024-03-08T12:24:30;102251.00;;;5.65;65.44
51715;BME280;39115;59.332;18.034;2024-03-08T12:26:51;102244.72;;;5.68;65.50
51715;BME280;39115;59.332;18.034;2024-03-08T12:29:26;102251.59;;;5.72;65.71
51715;BME280;39115;59.332;18.034;2024-03-08T12:32:08;102247.03;;;5.76;65.68